sensor_id;sensor_type;location;lat;lon;timestamp;temperature;humidity
36586;DHT22;22591;48.314;11.562;2023-03-31T00:00:29;7.50;99.90
36586;DHT22;22591;48.314;11.562;2023-03-31T00:02:56;7.50;99.90
36586;DHT22;22591;48.314;11.562;2023-03-31T00:05:23;7.40;99.90
36586;DHT22;22591;48.314;11.562;2023-03-31T00:07:56;7.50;99.90
36586;DHT22;22591;48.314;11.562;2023-03-31T00:10:26;7.50;99.90
36586;DHT22;22591;48.314;11.562;2023-03-31T00:12:52;7.50;99.90
36586;DHT22;22591;48.314;11.562;2023-03-31T00:15:18;7.50;99.90
36586;DHT22;22591;48.314;11.562;2023-03-31T00:17:44;7.60;99.90
36586;DHT22;22591;48.314;11.562;2023-03-31T00:20:11;7.60;99.90
36586;DHT22;22591;48.314;11.562;2023-03-31T00:22:38;7.70;99.90
36586;DHT22;22591;48.314;11.562;2023-03-31T00:25:07;7.80;99.90
36586;DHT22;22591;48.314;11.562;2023-03-31T00:27:34;7.80;99.90
36586;DHT22;22591;48.314;11.562;2023-03-31T00:29:59;7.80;99.90
36586;DHT22;22591;48.314;11.562;2023-03-31T00:32:25;7.80;99.90
36586;DHT22;22591;48.314;11.562;2023-03-31T00:34:50;7.80;99.90
36586;DHT22;22591;48.314;11.562;2023-03-31T00:37:16;7.80;99.90
36586;DHT22;22591;48.314;11.562;2023-03-31T00:39:42;7.80;99.90
36586;DHT22;22591;48.314;11.562;2023-03-31T00:42:10;7.90;99.90
36586;DHT22;22591;48.314;11.562;2023-03-31T00:45:16;7.90;99.90
36586;DHT22;22591;48.314;11.562;2023-03-31T00:47:26;7.90;99.90
36586;DHT22;22591;48.314;11.562;2023-03-31T00:49:55;8.00;99.90
36586;DHT22;22591;48.314;11.562;2023-03-31T00:52:26;8.10;99.90
36586;DHT22;22591;48.314;11.562;2023-03-31T00:54:57;8.10;99.90
36586;DHT22;22591;48.314;11.562;2023-03-31T00:57:26;8.10;99.90
36586;DHT22;22591;48.314;11.562;2023-03-31T00:59:56;8.20;99.90
36586;DHT22;22591;48.314;11.562;2023-03-31T01:02:23;8.20;99.90
36586;DHT22;22591;48.314;11.562;2023-03-31T01:04:54;8.30;99.90
36586;DHT22;22591;48.314;11.562;2023-03-31T01:07:32;8.30;99.90
36586;DHT22;22591;48.314;11.562;2023-03-31T01:10:01;8.30;99.90
36586;DHT22;22591;48.314;11.562;2023-03-31T01:12:28;8.40;99.90
36586;DHT22;22591;48.314;11.562;2023-03-31T01:14:55;8.40;99.90
36586;DHT22;22591;48.314;11.562;2023-03-31T01:17:21;8.40;99.90
36586;DHT22;22591;48.314;11.562;2023-03-31T01:19:59;8.50;99.90
36586;DHT22;22591;48.314;11.562;2023-03-31T01:25:39;8.50;99.90
36586;DHT22;22591;48.314;11.562;2023-03-31T01:28:24;8.50;99.90
36586;DHT22;22591;48.314;11.562;2023-03-31T01:31:16;8.40;99.90
36586;DHT22;22591;48.314;11.562;2023-03-31T01:45:15;8.20;99.90
36586;DHT22;22591;48.314;11.562;2023-03-31T01:47:54;8.10;99.90
36586;DHT22;22591;48.314;11.562;2023-03-31T01:50:34;8.10;99.90
36586;DHT22;22591;48.314;11.562;2023-03-31T01:53:04;8.10;99.90
36586;DHT22;22591;48.314;11.562;2023-03-31T01:55:38;8.10;99.90
36586;DHT22;22591;48.314;11.562;2023-03-31T01:58:55;8.20;99.90
36586;DHT22;22591;48.314;11.562;2023-03-31T02:01:18;8.30;99.90
36586;DHT22;22591;48.314;11.562;2023-03-31T02:03:49;8.40;99.90
36586;DHT22;22591;48.314;11.562;2023-03-31T02:06:21;8.50;99.90
36586;DHT22;22591;48.314;11.562;2023-03-31T02:08:53;8.50;99.90
36586;DHT22;22591;48.314;11.562;2023-03-31T02:11:20;8.50;99.90
36586;DHT22;22591;48.314;11.562;2023-03-31T02:13:48;8.60;99.90
36586;DHT22;22591;48.314;11.562;2023-03-31T02:16:21;8.60;99.90
36586;DHT22;22591;48.314;11.562;2023-03-31T02:18:49;8.60;99.90
36586;DHT22;22591;48.314;11.562;2023-03-31T02:21:18;8.70;99.90
36586;DHT22;22591;48.314;11.562;2023-03-31T02:23:45;8.70;99.90
36586;DHT22;22591;48.314;11.562;2023-03-31T02:26:15;8.70;99.90
36586;DHT22;22591;48.314;11.562;2023-03-31T02:28:42;8.80;99.90
36586;DHT22;22591;48.314;11.562;2023-03-31T02:31:34;8.80;99.90
36586;DHT22;22591;48.314;11.562;2023-03-31T02:34:02;8.80;99.90
36586;DHT22;22591;48.314;11.562;2023-03-31T02:36:28;8.80;99.90
36586;DHT22;22591;48.314;11.562;2023-03-31T02:38:58;8.90;99.90
36586;DHT22;22591;48.314;11.562;2023-03-31T02:41:25;8.90;99.90
36586;DHT22;22591;48.314;11.562;2023-03-31T02:43:50;9.00;99.90
36586;DHT22;22591;48.314;11.562;2023-03-31T02:46:16;9.00;99.90
36586;DHT22;22591;48.314;11.562;2023-03-31T02:48:47;9.10;99.90
36586;DHT22;22591;48.314;11.562;2023-03-31T03:05:42;9.20;99.90
36586;DHT22;22591;48.314;11.562;2023-03-31T03:08:20;9.30;99.90
36586;DHT22;22591;48.314;11.562;2023-03-31T03:11:06;9.40;99.90
36586;DHT22;22591;48.314;11.562;2023-03-31T03:16:40;9.60;99.90
36586;DHT22;22591;48.314;11.562;2023-03-31T03:19:08;9.90;99.90
36586;DHT22;22591;48.314;11.562;2023-03-31T03:21:34;10.00;99.90
36586;DHT22;22591;48.314;11.562;2023-03-31T03:24:00;9.90;99.90
36586;DHT22;22591;48.314;11.562;2023-03-31T03:26:26;9.90;99.90
36586;DHT22;22591;48.314;11.562;2023-03-31T03:28:55;9.80;99.90
36586;DHT22;22591;48.314;11.562;2023-03-31T03:31:22;9.70;99.90
36586;DHT22;22591;48.314;11.562;2023-03-31T03:33:49;9.70;99.90
36586;DHT22;22591;48.314;11.562;2023-03-31T03:36:15;9.60;99.90
36586;DHT22;22591;48.314;11.562;2023-03-31T03:38:41;9.60;99.90
36586;DHT22;22591;48.314;11.562;2023-03-31T03:41:06;9.50;99.90
36586;DHT22;22591;48.314;11.562;2023-03-31T03:43:32;9.50;99.90
36586;DHT22;22591;48.314;11.562;2023-03-31T03:45:58;9.40;99.90
36586;DHT22;22591;48.314;11.562;2023-03-31T03:48:24;9.50;99.90
36586;DHT22;22591;48.314;11.562;2023-03-31T03:50:50;9.40;99.90
36586;DHT22;22591;48.314;11.562;2023-03-31T03:53:17;9.40;99.90
36586;DHT22;22591;48.314;11.562;2023-03-31T03:55:43;9.40;99.90
36586;DHT22;22591;48.314;11.562;2023-03-31T03:58:09;9.40;99.90
36586;DHT22;22591;48.314;11.562;2023-03-31T04:00:35;9.30;99.90
36586;DHT22;22591;48.314;11.562;2023-03-31T04:03:01;9.20;99.90
36586;DHT22;22591;48.314;11.562;2023-03-31T04:05:26;9.20;99.90
36586;DHT22;22591;48.314;11.562;2023-03-31T04:07:52;9.10;99.90
36586;DHT22;22591;48.314;11.562;2023-03-31T04:10:17;9.10;99.90
36586;DHT22;22591;48.314;11.562;2023-03-31T04:12:43;9.10;99.90
36586;DHT22;22591;48.314;11.562;2023-03-31T04:15:09;9.00;99.90
36586;DHT22;22591;48.314;11.562;2023-03-31T04:17:34;9.00;99.90
36586;DHT22;22591;48.314;11.562;2023-03-31T04:20:05;8.90;99.90
36586;DHT22;22591;48.314;11.562;2023-03-31T04:22:32;8.90;99.90
36586;DHT22;22591;48.314;11.562;2023-03-31T04:25:09;9.00;99.90
36586;DHT22;22591;48.314;11.562;2023-03-31T04:27:40;8.90;99.90
36586;DHT22;22591;48.314;11.562;2023-03-31T04:30:12;9.00;99.90
36586;DHT22;22591;48.314;11.562;2023-03-31T04:32:51;9.00;99.90
36586;DHT22;22591;48.314;11.562;2023-03-31T04:35:18;8.90;99.90
36586;DHT22;22591;48.314;11.562;2023-03-31T04:37:46;8.90;99.90
36586;DHT22;22591;48.314;11.562;2023-03-31T04:40:12;8.90;99.90
36586;DHT22;22591;48.314;11.562;2023-03-31T04:42:37;8.90;99.90
36586;DHT22;22591;48.314;11.562;2023-03-31T04:45:03;8.80;99.90
36586;DHT22;22591;48.314;11.562;2023-03-31T04:47:29;8.70;99.90
36586;DHT22;22591;48.314;11.562;2023-03-31T04:49:54;8.70;99.90
36586;DHT22;22591;48.314;11.562;2023-03-31T04:52:20;8.80;99.90
36586;DHT22;22591;48.314;11.562;2023-03-31T04:54:46;8.70;99.90
36586;DHT22;22591;48.314;11.562;2023-03-31T04:57:12;8.70;99.90
36586;DHT22;22591;48.314;11.562;2023-03-31T04:59:38;8.60;99.90
36586;DHT22;22591;48.314;11.562;2023-03-31T05:02:03;8.60;99.90
36586;DHT22;22591;48.314;11.562;2023-03-31T05:04:29;8.60;99.90
36586;DHT22;22591;48.314;11.562;2023-03-31T05:06:54;8.60;99.90
36586;DHT22;22591;48.314;11.562;2023-03-31T05:09:20;8.50;99.90
36586;DHT22;22591;48.314;11.562;2023-03-31T05:11:46;8.40;99.90
36586;DHT22;22591;48.314;11.562;2023-03-31T05:14:12;8.40;99.90
36586;DHT22;22591;48.314;11.562;2023-03-31T05:16:37;8.40;99.90
36586;DHT22;22591;48.314;11.562;2023-03-31T05:19:03;8.40;99.90
36586;DHT22;22591;48.314;11.562;2023-03-31T05:21:29;8.40;99.90
36586;DHT22;22591;48.314;11.562;2023-03-31T05:23:56;8.40;99.90
36586;DHT22;22591;48.314;11.562;2023-03-31T05:26:23;8.50;99.90
36586;DHT22;22591;48.314;11.562;2023-03-31T05:28:50;8.50;99.90
36586;DHT22;22591;48.314;11.562;2023-03-31T05:31:16;8.50;99.90
36586;DHT22;22591;48.314;11.562;2023-03-31T05:33:42;8.50;99.90
36586;DHT22;22591;48.314;11.562;2023-03-31T05:36:13;8.50;99.90
36586;DHT22;22591;48.314;11.562;2023-03-31T05:38:39;8.50;99.90
36586;DHT22;22591;48.314;11.562;2023-03-31T05:41:05;8.50;99.90
36586;DHT22;22591;48.314;11.562;2023-03-31T05:43:37;8.50;99.90
36586;DHT22;22591;48.314;11.562;2023-03-31T05:46:03;8.50;99.90
36586;DHT22;22591;48.314;11.562;2023-03-31T05:48:29;8.50;99.90
36586;DHT22;22591;48.314;11.562;2023-03-31T05:50:56;8.50;99.90
36586;DHT22;22591;48.314;11.562;2023-03-31T05:53:23;8.60;99.90
36586;DHT22;22591;48.314;11.562;2023-03-31T05:55:49;8.60;99.90
36586;DHT22;22591;48.314;11.562;2023-03-31T05:58:14;8.60;99.90
36586;DHT22;22591;48.314;11.562;2023-03-31T06:00:40;8.70;99.90
36586;DHT22;22591;48.314;11.562;2023-03-31T06:03:05;8.80;99.90
36586;DHT22;22591;48.314;11.562;2023-03-31T06:05:33;8.90;99.90
36586;DHT22;22591;48.314;11.562;2023-03-31T06:07:59;8.90;99.90
36586;DHT22;22591;48.314;11.562;2023-03-31T06:10:24;8.90;99.90
36586;DHT22;22591;48.314;11.562;2023-03-31T06:12:50;9.00;99.90
36586;DHT22;22591;48.314;11.562;2023-03-31T06:15:17;9.20;99.90
36586;DHT22;22591;48.314;11.562;2023-03-31T06:17:42;9.40;99.90
36586;DHT22;22591;48.314;11.562;2023-03-31T06:20:08;9.50;99.90
36586;DHT22;22591;48.314;11.562;2023-03-31T06:22:34;9.50;99.90
36586;DHT22;22591;48.314;11.562;2023-03-31T06:24:59;9.60;99.90
36586;DHT22;22591;48.314;11.562;2023-03-31T06:27:25;9.70;99.90
36586;DHT22;22591;48.314;11.562;2023-03-31T06:29:51;9.70;99.90
36586;DHT22;22591;48.314;11.562;2023-03-31T06:32:16;9.70;99.90
36586;DHT22;22591;48.314;11.562;2023-03-31T06:34:42;9.70;99.90
36586;DHT22;22591;48.314;11.562;2023-03-31T06:37:07;9.70;99.90
36586;DHT22;22591;48.314;11.562;2023-03-31T06:39:33;9.70;99.90
36586;DHT22;22591;48.314;11.562;2023-03-31T06:41:58;9.70;99.90
36586;DHT22;22591;48.314;11.562;2023-03-31T06:44:24;9.70;99.90
36586;DHT22;22591;48.314;11.562;2023-03-31T06:46:49;9.80;99.90
36586;DHT22;22591;48.314;11.562;2023-03-31T06:49:15;9.90;99.90
36586;DHT22;22591;48.314;11.562;2023-03-31T06:51:40;10.00;99.90
36586;DHT22;22591;48.314;11.562;2023-03-31T06:54:06;9.90;99.90
36586;DHT22;22591;48.314;11.562;2023-03-31T06:56:31;9.80;99.90
36586;DHT22;22591;48.314;11.562;2023-03-31T06:58:57;9.70;99.90
36586;DHT22;22591;48.314;11.562;2023-03-31T07:01:23;9.70;99.90
36586;DHT22;22591;48.314;11.562;2023-03-31T07:03:48;9.60;99.90
36586;DHT22;22591;48.314;11.562;2023-03-31T07:06:14;9.70;99.90
36586;DHT22;22591;48.314;11.562;2023-03-31T07:08:39;9.70;99.90
36586;DHT22;22591;48.314;11.562;2023-03-31T07:11:05;9.70;99.90
36586;DHT22;22591;48.314;11.562;2023-03-31T07:13:30;9.60;99.90
36586;DHT22;22591;48.314;11.562;2023-03-31T07:15:56;9.50;99.90
36586;DHT22;22591;48.314;11.562;2023-03-31T07:18:22;9.60;99.90
36586;DHT22;22591;48.314;11.562;2023-03-31T07:20:56;9.70;99.90
36586;DHT22;22591;48.314;11.562;2023-03-31T07:23:22;9.70;99.90
36586;DHT22;22591;48.314;11.562;2023-03-31T07:25:48;9.60;99.90
36586;DHT22;22591;48.314;11.562;2023-03-31T07:28:14;9.60;99.90
36586;DHT22;22591;48.314;11.562;2023-03-31T07:30:39;9.50;99.90
36586;DHT22;22591;48.314;11.562;2023-03-31T07:33:05;9.50;99.90
36586;DHT22;22591;48.314;11.562;2023-03-31T07:35:31;9.40;99.90
36586;DHT22;22591;48.314;11.562;2023-03-31T07:37:57;9.40;99.90
36586;DHT22;22591;48.314;11.562;2023-03-31T07:40:26;9.30;99.90
36586;DHT22;22591;48.314;11.562;2023-03-31T07:42:52;9.40;99.90
36586;DHT22;22591;48.314;11.562;2023-03-31T07:45:20;9.30;99.90
36586;DHT22;22591;48.314;11.562;2023-03-31T07:47:45;9.30;99.90
36586;DHT22;22591;48.314;11.562;2023-03-31T07:50:12;9.40;99.90
36586;DHT22;22591;48.314;11.562;2023-03-31T07:52:38;9.60;99.90
36586;DHT22;22591;48.314;11.562;2023-03-31T07:55:05;9.90;99.90
36586;DHT22;22591;48.314;11.562;2023-03-31T07:57:31;9.90;99.90
36586;DHT22;22591;48.314;11.562;2023-03-31T07:59:56;10.20;99.90
36586;DHT22;22591;48.314;11.562;2023-03-31T08:02:22;10.30;99.90
36586;DHT22;22591;48.314;11.562;2023-03-31T08:04:48;10.20;99.90
36586;DHT22;22591;48.314;11.562;2023-03-31T08:07:14;10.00;99.90
36586;DHT22;22591;48.314;11.562;2023-03-31T08:09:43;9.90;99.90
36586;DHT22;22591;48.314;11.562;2023-03-31T08:12:09;10.00;99.90
36586;DHT22;22591;48.314;11.562;2023-03-31T08:14:34;10.10;99.90
36586;DHT22;22591;48.314;11.562;2023-03-31T08:17:00;10.20;99.90
36586;DHT22;22591;48.314;11.562;2023-03-31T08:19:26;10.20;99.90
36586;DHT22;22591;48.314;11.562;2023-03-31T08:21:52;10.40;99.90
36586;DHT22;22591;48.314;11.562;2023-03-31T08:24:18;10.60;99.90
36586;DHT22;22591;48.314;11.562;2023-03-31T08:26:44;10.70;99.90
36586;DHT22;22591;48.314;11.562;2023-03-31T08:29:09;10.70;99.90
36586;DHT22;22591;48.314;11.562;2023-03-31T08:31:35;10.80;99.90
36586;DHT22;22591;48.314;11.562;2023-03-31T08:34:01;10.80;99.90
36586;DHT22;22591;48.314;11.562;2023-03-31T08:36:27;10.60;99.90
36586;DHT22;22591;48.314;11.562;2023-03-31T08:38:53;10.60;99.90
36586;DHT22;22591;48.314;11.562;2023-03-31T08:46:41;10.80;99.90
36586;DHT22;22591;48.314;11.562;2023-03-31T08:49:14;10.90;99.90
36586;DHT22;22591;48.314;11.562;2023-03-31T08:51:51;11.00;99.90
36586;DHT22;22591;48.314;11.562;2023-03-31T08:57:05;11.40;99.90
36586;DHT22;22591;48.314;11.562;2023-03-31T08:59:35;11.60;99.90
36586;DHT22;22591;48.314;11.562;2023-03-31T09:15:35;12.40;99.90
36586;DHT22;22591;48.314;11.562;2023-03-31T09:18:12;12.40;99.90
36586;DHT22;22591;48.314;11.562;2023-03-31T09:20:44;12.50;99.90
36586;DHT22;22591;48.314;11.562;2023-03-31T09:25:38;12.90;99.90
36586;DHT22;22591;48.314;11.562;2023-03-31T09:28:19;13.00;99.90
36586;DHT22;22591;48.314;11.562;2023-03-31T09:30:46;13.00;99.90
36586;DHT22;22591;48.314;11.562;2023-03-31T09:35:48;12.80;99.90
36586;DHT22;22591;48.314;11.562;2023-03-31T09:38:14;12.80;99.90
36586;DHT22;22591;48.314;11.562;2023-03-31T09:40:41;13.20;99.90
36586;DHT22;22591;48.314;11.562;2023-03-31T09:43:23;13.60;99.90
36586;DHT22;22591;48.314;11.562;2023-03-31T09:45:49;13.90;99.90
36586;DHT22;22591;48.314;11.562;2023-03-31T09:48:18;14.00;99.90
36586;DHT22;22591;48.314;11.562;2023-03-31T09:50:54;14.00;99.90
36586;DHT22;22591;48.314;11.562;2023-03-31T09:53:44;13.90;99.90
36586;DHT22;22591;48.314;11.562;2023-03-31T09:56:12;13.80;99.90
36586;DHT22;22591;48.314;11.562;2023-03-31T09:58:43;13.70;99.90
36586;DHT22;22591;48.314;11.562;2023-03-31T10:01:10;13.60;99.90
36586;DHT22;22591;48.314;11.562;2023-03-31T10:03:51;13.50;99.90
36586;DHT22;22591;48.314;11.562;2023-03-31T10:06:18;13.60;99.90
36586;DHT22;22591;48.314;11.562;2023-03-31T10:09:01;13.70;99.90
36586;DHT22;22591;48.314;11.562;2023-03-31T10:11:27;13.80;99.90
36586;DHT22;22591;48.314;11.562;2023-03-31T10:14:05;13.90;99.90
36586;DHT22;22591;48.314;11.562;2023-03-31T10:16:43;13.90;99.90
36586;DHT22;22591;48.314;11.562;2023-03-31T10:21:57;13.80;99.90
36586;DHT22;22591;48.314;11.562;2023-03-31T10:24:23;13.90;99.90
36586;DHT22;22591;48.314;11.562;2023-03-31T10:26:52;14.10;99.90
36586;DHT22;22591;48.314;11.562;2023-03-31T10:29:22;14.30;99.90
36586;DHT22;22591;48.314;11.562;2023-03-31T10:31:52;14.30;99.90
36586;DHT22;22591;48.314;11.562;2023-03-31T10:34:17;14.40;99.90
36586;DHT22;22591;48.314;11.562;2023-03-31T10:36:49;14.40;99.90
36586;DHT22;22591;48.314;11.562;2023-03-31T10:39:16;14.50;99.90
36586;DHT22;22591;48.314;11.562;2023-03-31T10:41:49;14.80;99.90
36586;DHT22;22591;48.314;11.562;2023-03-31T10:47:06;15.20;99.90
36586;DHT22;22591;48.314;11.562;2023-03-31T10:49:42;15.40;99.90
36586;DHT22;22591;48.314;11.562;2023-03-31T10:52:20;15.20;99.90
36586;DHT22;22591;48.314;11.562;2023-03-31T10:54:58;15.10;99.90
36586;DHT22;22591;48.314;11.562;2023-03-31T11:00:11;15.30;98.20
36586;DHT22;22591;48.314;11.562;2023-03-31T11:05:45;15.50;98.30
36586;DHT22;22591;48.314;11.562;2023-03-31T11:08:43;15.60;97.20
36586;DHT22;22591;48.314;11.562;2023-03-31T11:14:06;15.70;96.40
36586;DHT22;22591;48.314;11.562;2023-03-31T11:16:57;15.90;96.00
36586;DHT22;22591;48.314;11.562;2023-03-31T11:22:24;16.20;94.70
36586;DHT22;22591;48.314;11.562;2023-03-31T11:25:06;15.90;94.60
36586;DHT22;22591;48.314;11.562;2023-03-31T11:30:29;15.20;95.30
36586;DHT22;22591;48.314;11.562;2023-03-31T11:41:33;12.40;99.90
36586;DHT22;22591;48.314;11.562;2023-03-31T11:44:05;12.80;99.90
36586;DHT22;22591;48.314;11.562;2023-03-31T11:46:49;13.10;99.90
36586;DHT22;22591;48.314;11.562;2023-03-31T11:49:26;13.20;99.90
36586;DHT22;22591;48.314;11.562;2023-03-31T11:52:02;13.30;99.90
36586;DHT22;22591;48.314;11.562;2023-03-31T11:54:48;13.50;99.90
36586;DHT22;22591;48.314;11.562;2023-03-31T11:57:38;14.00;99.90
36586;DHT22;22591;48.314;11.562;2023-03-31T12:03:20;14.80;99.90
36586;DHT22;22591;48.314;11.562;2023-03-31T12:05:54;15.10;99.80
36586;DHT22;22591;48.314;11.562;2023-03-31T12:08:30;15.50;98.00
36586;DHT22;22591;48.314;11.562;2023-03-31T12:11:14;15.80;97.30
36586;DHT22;22591;48.314;11.562;2023-03-31T12:13:49;15.90;96.30
36586;DHT22;22591;48.314;11.562;2023-03-31T12:19:10;16.10;94.80
36586;DHT22;22591;48.314;11.562;2023-03-31T12:21:43;15.90;93.00
36586;DHT22;22591;48.314;11.562;2023-03-31T12:24:13;15.80;93.90
36586;DHT22;22591;48.314;11.562;2023-03-31T12:29:32;16.00;92.90
36586;DHT22;22591;48.314;11.562;2023-03-31T12:32:04;15.60;93.40
36586;DHT22;22591;48.314;11.562;2023-03-31T12:34:32;15.50;93.70
36586;DHT22;22591;48.314;11.562;2023-03-31T12:42:38;15.70;94.00
36586;DHT22;22591;48.314;11.562;2023-03-31T12:45:27;15.90;93.30
36586;DHT22;22591;48.314;11.562;2023-03-31T12:48:33;15.90;92.70
36586;DHT22;22591;48.314;11.562;2023-03-31T12:56:08;15.90;92.80
36586;DHT22;22591;48.314;11.562;2023-03-31T12:58:39;16.00;93.60
36586;DHT22;22591;48.314;11.562;2023-03-31T13:01:19;16.20;92.20
36586;DHT22;22591;48.314;11.562;2023-03-31T13:09:00;15.70;91.90
36586;DHT22;22591;48.314;11.562;2023-03-31T13:14:23;15.50;92.20
36586;DHT22;22591;48.314;11.562;2023-03-31T13:16:50;15.40;91.60
36586;DHT22;22591;48.314;11.562;2023-03-31T13:19:30;15.20;92.20
36586;DHT22;22591;48.314;11.562;2023-03-31T13:21:58;15.10;92.90
36586;DHT22;22591;48.314;11.562;2023-03-31T13:24:26;15.00;92.30
36586;DHT22;22591;48.314;11.562;2023-03-31T13:26:53;14.90;92.60
36586;DHT22;22591;48.314;11.562;2023-03-31T13:29:40;14.90;92.50
36586;DHT22;22591;48.314;11.562;2023-03-31T13:35:02;15.10;89.10
36586;DHT22;22591;48.314;11.562;2023-03-31T13:46:31;15.80;90.80
36586;DHT22;22591;48.314;11.562;2023-03-31T13:51:58;15.20;93.00
36586;DHT22;22591;48.314;11.562;2023-03-31T14:00:18;14.70;93.50
36586;DHT22;22591;48.314;11.562;2023-03-31T14:02:59;14.50;93.90
36586;DHT22;22591;48.314;11.562;2023-03-31T14:05:46;14.30;94.50
36586;DHT22;22591;48.314;11.562;2023-03-31T14:11:26;13.90;95.00
36586;DHT22;22591;48.314;11.562;2023-03-31T14:14:11;13.80;95.00
36586;DHT22;22591;48.314;11.562;2023-03-31T14:16:49;13.80;94.90
36586;DHT22;22591;48.314;11.562;2023-03-31T14:19:38;13.70;95.40
36586;DHT22;22591;48.314;11.562;2023-03-31T14:25:04;13.70;95.50
36586;DHT22;22591;48.314;11.562;2023-03-31T14:31:11;13.90;95.30
36586;DHT22;22591;48.314;11.562;2023-03-31T14:39:25;14.20;94.90
36586;DHT22;22591;48.314;11.562;2023-03-31T14:41:53;14.40;94.90
36586;DHT22;22591;48.314;11.562;2023-03-31T14:44:19;14.40;94.80
36586;DHT22;22591;48.314;11.562;2023-03-31T14:46:45;14.30;94.50
36586;DHT22;22591;48.314;11.562;2023-03-31T14:49:35;14.20;94.10
36586;DHT22;22591;48.314;11.562;2023-03-31T14:52:12;14.00;94.30
36586;DHT22;22591;48.314;11.562;2023-03-31T14:54:38;13.70;95.10
36586;DHT22;22591;48.314;11.562;2023-03-31T14:57:05;13.50;95.50
36586;DHT22;22591;48.314;11.562;2023-03-31T14:59:33;13.20;96.20
36586;DHT22;22591;48.314;11.562;2023-03-31T15:02:02;12.90;98.10
36586;DHT22;22591;48.314;11.562;2023-03-31T15:04:30;12.30;99.30
36586;DHT22;22591;48.314;11.562;2023-03-31T15:06:59;11.90;99.90
36586;DHT22;22591;48.314;11.562;2023-03-31T15:09:27;11.60;99.90
36586;DHT22;22591;48.314;11.562;2023-03-31T15:12:06;11.60;99.90
36586;DHT22;22591;48.314;11.562;2023-03-31T15:14:36;11.80;99.90
36586;DHT22;22591;48.314;11.562;2023-03-31T15:17:04;12.10;99.90
36586;DHT22;22591;48.314;11.562;2023-03-31T15:19:33;12.60;99.90
36586;DHT22;22591;48.314;11.562;2023-03-31T15:22:11;13.10;99.90
36586;DHT22;22591;48.314;11.562;2023-03-31T15:24:38;13.50;99.90
36586;DHT22;22591;48.314;11.562;2023-03-31T15:29:44;13.30;99.30
36586;DHT22;22591;48.314;11.562;2023-03-31T15:32:31;12.90;99.60
36586;DHT22;22591;48.314;11.562;2023-03-31T15:34:59;12.90;99.40
36586;DHT22;22591;48.314;11.562;2023-03-31T15:37:33;12.70;97.80
36586;DHT22;22591;48.314;11.562;2023-03-31T15:40:02;12.60;97.30
36586;DHT22;22591;48.314;11.562;2023-03-31T15:42:33;12.50;96.80
36586;DHT22;22591;48.314;11.562;2023-03-31T15:47:48;12.50;96.60
36586;DHT22;22591;48.314;11.562;2023-03-31T15:50:14;12.50;97.00
36586;DHT22;22591;48.314;11.562;2023-03-31T15:52:51;12.60;96.90
36586;DHT22;22591;48.314;11.562;2023-03-31T15:55:24;12.50;96.50
36586;DHT22;22591;48.314;11.562;2023-03-31T15:57:51;12.50;96.50
36586;DHT22;22591;48.314;11.562;2023-03-31T16:03:11;12.40;96.50
36586;DHT22;22591;48.314;11.562;2023-03-31T16:05:41;12.40;96.50
36586;DHT22;22591;48.314;11.562;2023-03-31T16:08:37;12.40;96.30
36586;DHT22;22591;48.314;11.562;2023-03-31T16:11:05;12.40;95.90
36586;DHT22;22591;48.314;11.562;2023-03-31T16:13:32;12.50;95.50
36586;DHT22;22591;48.314;11.562;2023-03-31T16:15:59;12.50;95.10
36586;DHT22;22591;48.314;11.562;2023-03-31T16:18:31;12.80;95.10
36586;DHT22;22591;48.314;11.562;2023-03-31T16:21:00;12.70;95.10
36586;DHT22;22591;48.314;11.562;2023-03-31T16:23:34;12.50;95.60
36586;DHT22;22591;48.314;11.562;2023-03-31T16:26:03;12.30;96.10
36586;DHT22;22591;48.314;11.562;2023-03-31T16:28:36;12.20;96.10
36586;DHT22;22591;48.314;11.562;2023-03-31T16:31:02;12.20;96.70
36586;DHT22;22591;48.314;11.562;2023-03-31T16:33:30;12.10;97.00
36586;DHT22;22591;48.314;11.562;2023-03-31T16:35:56;12.00;97.30
36586;DHT22;22591;48.314;11.562;2023-03-31T16:38:25;11.90;97.50
36586;DHT22;22591;48.314;11.562;2023-03-31T16:40:52;11.80;97.70
36586;DHT22;22591;48.314;11.562;2023-03-31T16:43:21;11.70;97.90
36586;DHT22;22591;48.314;11.562;2023-03-31T16:45:52;11.70;98.10
36586;DHT22;22591;48.314;11.562;2023-03-31T16:48:19;11.70;98.40
36586;DHT22;22591;48.314;11.562;2023-03-31T16:50:47;11.70;98.90
36586;DHT22;22591;48.314;11.562;2023-03-31T16:53:14;11.70;99.10
36586;DHT22;22591;48.314;11.562;2023-03-31T16:55:40;11.60;99.90
36586;DHT22;22591;48.314;11.562;2023-03-31T16:58:06;11.50;99.90
36586;DHT22;22591;48.314;11.562;2023-03-31T17:00:33;11.30;99.90
36586;DHT22;22591;48.314;11.562;2023-03-31T17:03:00;10.80;99.90
36586;DHT22;22591;48.314;11.562;2023-03-31T17:05:27;10.40;99.90
36586;DHT22;22591;48.314;11.562;2023-03-31T17:07:53;10.00;99.90
36586;DHT22;22591;48.314;11.562;2023-03-31T17:10:20;9.80;99.90
36586;DHT22;22591;48.314;11.562;2023-03-31T17:12:46;9.50;99.90
36586;DHT22;22591;48.314;11.562;2023-03-31T17:15:12;9.30;99.90
36586;DHT22;22591;48.314;11.562;2023-03-31T17:17:37;9.10;99.90
36586;DHT22;22591;48.314;11.562;2023-03-31T17:20:04;9.00;99.90
36586;DHT22;22591;48.314;11.562;2023-03-31T17:22:31;9.00;99.90
36586;DHT22;22591;48.314;11.562;2023-03-31T17:24:57;9.00;99.90
36586;DHT22;22591;48.314;11.562;2023-03-31T17:27:27;9.00;99.90
36586;DHT22;22591;48.314;11.562;2023-03-31T17:29:53;9.00;99.90
36586;DHT22;22591;48.314;11.562;2023-03-31T17:32:19;9.10;99.90
36586;DHT22;22591;48.314;11.562;2023-03-31T17:34:45;9.10;99.90
36586;DHT22;22591;48.314;11.562;2023-03-31T17:37:15;9.00;99.90
36586;DHT22;22591;48.314;11.562;2023-03-31T17:39:41;9.00;99.90
36586;DHT22;22591;48.314;11.562;2023-03-31T17:42:08;8.90;99.90
36586;DHT22;22591;48.314;11.562;2023-03-31T17:44:34;8.90;99.90
36586;DHT22;22591;48.314;11.562;2023-03-31T17:46:59;8.80;99.90
36586;DHT22;22591;48.314;11.562;2023-03-31T17:49:25;8.80;99.90
36586;DHT22;22591;48.314;11.562;2023-03-31T17:51:51;8.70;99.90
36586;DHT22;22591;48.314;11.562;2023-03-31T17:54:17;8.50;99.90
36586;DHT22;22591;48.314;11.562;2023-03-31T17:56:43;8.50;99.90
36586;DHT22;22591;48.314;11.562;2023-03-31T17:59:10;8.50;99.90
36586;DHT22;22591;48.314;11.562;2023-03-31T18:01:35;8.40;99.90
36586;DHT22;22591;48.314;11.562;2023-03-31T18:04:02;8.30;99.90
36586;DHT22;22591;48.314;11.562;2023-03-31T18:06:28;8.30;99.90
36586;DHT22;22591;48.314;11.562;2023-03-31T18:08:54;8.30;99.90
36586;DHT22;22591;48.314;11.562;2023-03-31T18:11:21;8.30;99.90
36586;DHT22;22591;48.314;11.562;2023-03-31T18:13:46;8.20;99.90
36586;DHT22;22591;48.314;11.562;2023-03-31T18:16:12;8.20;99.90
36586;DHT22;22591;48.314;11.562;2023-03-31T18:18:38;8.20;99.90